Time;durP1;ratioP1;P1;durP2;ratioP2;P2;SDS_P1;SDS_P2;PMS_P1;PMS_P2;Temp;Humidity;BMP_temperature;BMP_pressure;BME280_temperature;BME280_humidity;BME280_pressure;Samples;Min_cycle;Max_cycle;Signal;HPM_P1;HPM_P2
2023/04/22 00:00:41;;;;;;;24.57;9.73;;;11.30;99.90;;;;;;4997189;28;20220;-75
2023/04/22 00:03:08;;;;;;;15.63;8.20;;;11.30;99.90;;;;;;4997122;28;20287;-74
2023/04/22 00:05:36;;;;;;;18.10;8.33;;;11.20;99.90;;;;;;5014351;28;20301;-74
2023/04/22 00:08:03;;;;;;;14.97;7.90;;;11.20;99.90;;;;;;4997036;28;20322;-74
2023/04/22 00:10:30;;;;;;;14.37;8.23;;;11.20;99.90;;;;;;4997024;28;20200;-73
2023/04/22 00:12:57;;;;;;;17.00;8.13;;;11.20;99.90;;;;;;5014156;28;20328;-73
2023/04/22 00:15:25;;;;;;;18.03;7.80;;;11.20;99.90;;;;;;4997013;28;20553;-73
2023/04/22 00:17:52;;;;;;;16.17;7.90;;;11.20;99.90;;;;;;4996377;28;20282;-74
2023/04/22 00:20:20;;;;;;;16.03;7.73;;;11.10;99.90;;;;;;4996517;28;20239;-73
2023/04/22 00:22:47;;;;;;;13.43;7.97;;;11.10;99.90;;;;;;4996383;28;20610;-73
2023/04/22 00:25:15;;;;;;;16.87;7.70;;;11.10;99.90;;;;;;4996674;28;20192;-73
2023/04/22 00:27:48;;;;;;;15.27;8.00;;;11.10;99.90;;;;;;4996147;28;20582;-73
2023/04/22 00:30:15;;;;;;;17.60;7.80;;;11.00;99.90;;;;;;5014138;28;20234;-73
2023/04/22 00:32:42;;;;;;;17.07;7.63;;;11.00;99.90;;;;;;5012467;28;20235;-75
2023/04/22 00:35:09;;;;;;;14.93;7.50;;;10.90;99.90;;;;;;5013841;28;20200;-74
2023/04/22 00:37:36;;;;;;;14.33;7.03;;;10.90;99.90;;;;;;5013704;28;20203;-74
2023/04/22 00:40:04;;;;;;;14.87;7.53;;;10.80;99.90;;;;;;4996707;28;20569;-74
2023/04/22 00:42:31;;;;;;;13.47;7.53;;;10.80;99.90;;;;;;4995946;28;20219;-75
2023/04/22 00:44:59;;;;;;;15.20;8.10;;;10.80;99.90;;;;;;5012372;28;20208;-73
2023/04/22 00:47:26;;;;;;;14.90;7.53;;;10.80;99.90;;;;;;5013374;28;20570;-74
2023/04/22 00:49:54;;;;;;;17.97;7.57;;;10.70;99.90;;;;;;4996001;28;20204;-74
2023/04/22 00:52:21;;;;;;;16.47;8.07;;;10.70;99.90;;;;;;4995829;28;20199;-73
2023/04/22 00:54:48;;;;;;;13.43;7.40;;;10.70;99.90;;;;;;4996085;28;20195;-73
2023/04/22 00:57:17;;;;;;;15.20;7.90;;;10.60;99.90;;;;;;4995551;28;20192;-73
2023/04/22 00:59:44;;;;;;;15.37;7.80;;;10.60;99.90;;;;;;4996134;28;20208;-74
2023/04/22 01:02:12;;;;;;;14.97;7.73;;;10.60;99.90;;;;;;5013213;28;20230;-73
2023/04/22 01:04:39;;;;;;;14.17;7.83;;;10.50;99.90;;;;;;4995865;28;20212;-72
2023/04/22 01:07:06;;;;;;;15.33;7.83;;;10.50;99.90;;;;;;5013263;28;20210;-72
2023/04/22 01:09:33;;;;;;;14.47;7.40;;;10.50;99.90;;;;;;4996009;28;20196;-74
2023/04/22 01:12:00;;;;;;;12.83;7.40;;;10.40;99.90;;;;;;4995607;28;20236;-73
2023/04/22 01:14:28;;;;;;;13.53;7.60;;;10.40;99.90;;;;;;4995842;28;20222;-72
2023/04/22 01:16:55;;;;;;;14.27;7.40;;;10.30;99.90;;;;;;5013298;28;20192;-73
2023/04/22 01:19:22;;;;;;;12.87;7.73;;;10.40;99.90;;;;;;5012014;28;20207;-72
2023/04/22 01:21:54;;;;;;;14.60;7.37;;;10.40;99.90;;;;;;4995506;28;20239;-72
2023/04/22 01:24:21;;;;;;;13.53;7.40;;;10.40;99.90;;;;;;4995716;28;20203;-73
2023/04/22 01:26:48;;;;;;;14.13;7.30;;;10.30;99.90;;;;;;4995429;28;20200;-72
2023/04/22 01:29:15;;;;;;;14.37;7.20;;;10.20;99.90;;;;;;4995398;28;20196;-73
2023/04/22 01:31:42;;;;;;;17.80;7.70;;;10.20;99.90;;;;;;4995652;28;20195;-73
2023/04/22 01:34:09;;;;;;;15.27;7.20;;;10.20;99.90;;;;;;4994950;28;20220;-74
2023/04/22 01:36:36;;;;;;;12.70;7.33;;;10.10;99.90;;;;;;5012802;28;20199;-73
2023/04/22 01:39:03;;;;;;;14.40;7.43;;;10.10;99.90;;;;;;4995190;28;20642;-73
2023/04/22 01:41:30;;;;;;;14.40;7.47;;;10.10;99.90;;;;;;5011585;28;20227;-73
2023/04/22 01:43:59;;;;;;;13.77;7.43;;;10.10;99.90;;;;;;4994937;28;20203;-73
2023/04/22 01:46:25;;;;;;;14.30;7.77;;;10.10;99.90;;;;;;5012663;28;20192;-73
2023/04/22 01:48:53;;;;;;;11.83;6.93;;;10.00;99.90;;;;;;5011103;28;20202;-73
2023/04/22 01:51:20;;;;;;;17.47;8.03;;;10.00;99.90;;;;;;5011757;28;20204;-73
2023/04/22 01:53:47;;;;;;;15.23;7.37;;;9.90;99.90;;;;;;4995042;28;20767;-73
2023/04/22 01:56:14;;;;;;;16.53;7.23;;;9.90;99.90;;;;;;4995184;28;20199;-73
2023/04/22 01:58:41;;;;;;;14.00;7.00;;;9.90;99.90;;;;;;4994856;28;20203;-72
2023/04/22 02:01:10;;;;;;;12.87;6.90;;;9.90;99.90;;;;;;4994839;28;20223;-74
2023/04/22 02:03:37;;;;;;;12.27;6.73;;;9.90;99.90;;;;;;4994787;28;20650;-73
2023/04/22 02:06:04;;;;;;;14.53;7.43;;;9.80;99.90;;;;;;4996849;28;20199;-73
2023/04/22 02:08:31;;;;;;;12.87;6.80;;;9.80;99.90;;;;;;4999203;28;20200;-73
2023/04/22 02:10:59;;;;;;;12.03;6.73;;;9.80;99.90;;;;;;5015063;28;20634;-72
2023/04/22 02:13:35;;;;;;;12.03;6.77;;;9.70;99.90;;;;;;5016323;28;20584;-73
2023/04/22 02:16:02;;;;;;;12.83;6.97;;;9.60;99.90;;;;;;4998812;28;20735;-73
2023/04/22 02:18:29;;;;;;;16.47;7.00;;;9.70;99.90;;;;;;4998643;28;20195;-74
2023/04/22 02:20:56;;;;;;;11.70;6.23;;;9.60;99.90;;;;;;5016654;28;20300;-73
2023/04/22 02:23:24;;;;;;;15.37;6.90;;;9.60;99.90;;;;;;4998728;28;20612;-72
2023/04/22 02:25:51;;;;;;;10.70;6.30;;;9.60;99.90;;;;;;4998737;28;20196;-73
2023/04/22 02:28:18;;;;;;;11.20;6.53;;;9.60;99.90;;;;;;5016614;28;20203;-73
2023/04/22 02:30:45;;;;;;;12.10;6.60;;;9.50;99.90;;;;;;5014720;28;20207;-74
2023/04/22 02:33:12;;;;;;;13.13;6.83;;;9.50;99.90;;;;;;4999401;28;20228;-73
2023/04/22 02:35:39;;;;;;;18.40;7.63;;;9.60;99.90;;;;;;4998623;28;20196;-73
2023/04/22 02:38:06;;;;;;;12.57;7.03;;;9.50;99.90;;;;;;5015994;28;20188;-74
2023/04/22 02:40:33;;;;;;;9.53;6.07;;;9.50;99.90;;;;;;4998278;28;20634;-73
2023/04/22 02:42:59;;;;;;;10.47;6.50;;;9.40;99.90;;;;;;4998333;28;20227;-73
2023/04/22 02:45:26;;;;;;;13.70;6.70;;;9.30;99.90;;;;;;4998147;28;20192;-73
2023/04/22 02:47:53;;;;;;;12.07;6.80;;;9.30;99.90;;;;;;4998023;28;20610;-72
2023/04/22 02:50:20;;;;;;;12.60;7.00;;;9.30;99.90;;;;;;4998256;28;20605;-73
2023/04/22 02:52:47;;;;;;;12.17;6.77;;;9.20;99.90;;;;;;5016440;28;20653;-73
2023/04/22 02:55:14;;;;;;;15.53;6.77;;;9.30;99.90;;;;;;4998167;28;20216;-73
2023/04/22 02:57:41;;;;;;;12.23;6.80;;;9.30;99.90;;;;;;5015748;28;20192;-74
2023/04/22 03:00:09;;;;;;;12.17;7.00;;;9.20;99.90;;;;;;4997977;28;20204;-75
2023/04/22 03:02:37;;;;;;;12.50;6.47;;;9.20;99.90;;;;;;5015415;28;20224;-74
2023/04/22 03:05:05;;;;;;;13.70;6.67;;;9.20;99.90;;;;;;4997788;28;20208;-74
2023/04/22 03:07:31;;;;;;;12.37;6.77;;;9.20;99.90;;;;;;4997927;28;20208;-74
2023/04/22 03:09:58;;;;;;;13.47;6.80;;;9.20;99.90;;;;;;5014212;28;20192;-74
2023/04/22 03:12:25;;;;;;;10.50;6.47;;;9.20;99.90;;;;;;4997524;28;20231;-74
2023/04/22 03:14:52;;;;;;;13.70;6.80;;;9.20;99.90;;;;;;4998085;28;20196;-73
2023/04/22 03:17:19;;;;;;;11.30;6.77;;;9.10;99.90;;;;;;4996323;28;20200;-73
2023/04/22 03:19:46;;;;;;;12.20;6.77;;;9.10;99.90;;;;;;5015063;28;20708;-73
2023/04/22 03:22:13;;;;;;;14.03;6.83;;;9.10;99.90;;;;;;4997927;28;20704;-73
2023/04/22 03:24:40;;;;;;;10.33;6.40;;;9.10;99.90;;;;;;4997574;28;20204;-73
2023/04/22 03:27:08;;;;;;;12.80;7.23;;;9.00;99.90;;;;;;4997312;28;20200;-73
2023/04/22 03:29:35;;;;;;;11.73;6.50;;;9.00;99.90;;;;;;4997862;28;20200;-73
2023/04/22 03:32:01;;;;;;;12.20;6.77;;;9.00;99.90;;;;;;4997248;28;20199;-72
2023/04/22 03:34:28;;;;;;;13.70;6.83;;;9.00;99.90;;;;;;5015270;28;20514;-73
2023/04/22 03:36:55;;;;;;;11.33;6.37;;;9.10;99.90;;;;;;4997613;28;20544;-74
2023/04/22 03:39:22;;;;;;;13.43;7.10;;;9.10;99.90;;;;;;5014055;28;20199;-74
2023/04/22 03:41:49;;;;;;;14.10;6.50;;;9.10;99.90;;;;;;4997844;28;20216;-72
2023/04/22 03:44:16;;;;;;;11.87;6.80;;;9.10;99.90;;;;;;5014977;28;20195;-72
2023/04/22 03:46:42;;;;;;;10.63;6.30;;;9.10;99.90;;;;;;5014946;28;20204;-71
2023/04/22 03:49:10;;;;;;;11.43;6.53;;;9.10;99.90;;;;;;5014559;28;20189;-72
2023/04/22 03:51:37;;;;;;;13.20;6.63;;;9.20;99.90;;;;;;5014976;28;20202;-73
2023/04/22 03:54:04;;;;;;;12.00;6.50;;;9.10;99.90;;;;;;4997006;28;20223;-73
2023/04/22 03:56:32;;;;;;;12.50;6.70;;;9.10;99.90;;;;;;4996813;28;20192;-72
2023/04/22 03:58:59;;;;;;;14.17;7.07;;;9.20;99.90;;;;;;4997008;28;20192;-72
2023/04/22 04:01:26;;;;;;;12.70;6.60;;;9.10;99.90;;;;;;5014494;28;20299;-73
2023/04/22 04:03:53;;;;;;;11.17;6.43;;;9.10;99.90;;;;;;4997127;28;20196;-73
2023/04/22 04:06:20;;;;;;;11.87;6.07;;;9.00;99.90;;;;;;5014621;28;20246;-72
2023/04/22 04:08:47;;;;;;;12.90;7.00;;;9.00;99.90;;;;;;5014519;28;20649;-73
2023/04/22 04:11:14;;;;;;;12.70;6.77;;;9.10;99.90;;;;;;5012852;28;20204;-73
2023/04/22 04:13:41;;;;;;;14.80;6.83;;;9.10;99.90;;;;;;5014429;28;20278;-73
2023/04/22 04:16:08;;;;;;;13.43;6.90;;;9.10;99.90;;;;;;4996797;28;20180;-73
2023/04/22 04:18:36;;;;;;;16.57;7.10;;;9.20;99.90;;;;;;5014192;28;20183;-73
2023/04/22 04:21:03;;;;;;;13.23;6.87;;;9.30;99.90;;;;;;5012918;28;20234;-73
2023/04/22 04:23:30;;;;;;;13.00;6.97;;;9.40;99.90;;;;;;4996553;28;20247;-73
2023/04/22 04:26:01;;;;;;;12.97;6.97;;;9.50;99.90;;;;;;5014325;28;20195;-75
2023/04/22 04:28:31;;;;;;;11.47;6.70;;;9.40;99.90;;;;;;4996103;28;20330;-73
2023/04/22 04:30:59;;;;;;;13.73;7.03;;;9.50;99.90;;;;;;4996345;28;20204;-73
2023/04/22 04:33:27;;;;;;;13.33;6.07;;;9.50;99.90;;;;;;5013843;28;20212;-73
2023/04/22 04:35:54;;;;;;;11.77;6.53;;;9.60;99.90;;;;;;4996223;28;20240;-73
2023/04/22 04:38:21;;;;;;;13.63;6.70;;;9.50;99.90;;;;;;4996190;28;20203;-74
2023/04/22 04:40:49;;;;;;;11.43;6.73;;;9.60;99.90;;;;;;5013898;28;20650;-73
2023/04/22 04:43:16;;;;;;;12.73;6.30;;;9.60;99.90;;;;;;5014204;28;20208;-73
2023/04/22 04:45:45;;;;;;;10.53;6.03;;;9.80;99.90;;;;;;4996252;28;20548;-73
2023/04/22 04:48:15;;;;;;;21.53;7.67;;;9.80;99.90;;;;;;4995821;28;20300;-72
2023/04/22 04:50:43;;;;;;;13.77;6.60;;;9.90;99.90;;;;;;4996120;28;20196;-74
2023/04/22 04:53:10;;;;;;;15.20;6.57;;;9.90;99.90;;;;;;4996101;28;20215;-73
2023/04/22 04:55:37;;;;;;;11.17;6.70;;;10.10;99.90;;;;;;4995909;28;20204;-73
2023/04/22 04:58:04;;;;;;;9.87;6.20;;;10.00;99.90;;;;;;4996146;28;20184;-73
2023/04/22 05:00:32;;;;;;;12.50;6.27;;;10.10;99.90;;;;;;4996323;28;20223;-74
2023/04/22 05:02:59;;;;;;;17.30;6.93;;;10.10;99.90;;;;;;4979849;28;20693;-73
2023/04/22 05:05:27;;;;;;;15.17;6.60;;;10.20;99.90;;;;;;5013378;28;20283;-73
2023/04/22 05:07:54;;;;;;;18.20;6.93;;;10.20;99.90;;;;;;4995898;28;20196;-73
2023/04/22 05:10:21;;;;;;;14.10;6.53;;;10.20;99.90;;;;;;5012020;28;20584;-74
2023/04/22 05:12:48;;;;;;;11.83;6.53;;;10.30;99.90;;;;;;4995270;28;20220;-73
2023/04/22 05:15:15;;;;;;;9.97;6.00;;;10.30;99.90;;;;;;4995479;28;20208;-73
2023/04/22 05:17:43;;;;;;;10.43;6.27;;;10.40;99.90;;;;;;5013396;28;20192;-74
2023/04/22 05:20:10;;;;;;;13.13;6.20;;;10.50;99.90;;;;;;5011867;28;20735;-72
2023/04/22 05:22:37;;;;;;;11.50;5.87;;;10.50;99.90;;;;;;5011443;28;20219;-74
2023/04/22 05:25:04;;;;;;;11.10;6.00;;;10.60;99.90;;;;;;4995721;28;20589;-73
2023/04/22 05:27:31;;;;;;;11.67;6.20;;;10.60;99.90;;;;;;5013015;28;20200;-73
2023/04/22 05:29:58;;;;;;;13.47;6.30;;;10.70;99.90;;;;;;5013273;28;20284;-71
2023/04/22 05:32:25;;;;;;;12.20;6.27;;;10.70;99.90;;;;;;5011709;28;20231;-74
2023/04/22 05:34:52;;;;;;;18.60;6.80;;;10.80;99.90;;;;;;4979291;28;20270;-73
2023/04/22 05:37:19;;;;;;;11.07;6.07;;;11.00;99.90;;;;;;5012627;28;20193;-75
2023/04/22 05:39:46;;;;;;;11.10;6.30;;;11.10;99.90;;;;;;5012410;28;20192;-73
2023/04/22 05:42:13;;;;;;;10.57;6.20;;;11.20;99.90;;;;;;4994944;28;20701;-74
2023/04/22 05:44:40;;;;;;;10.30;5.83;;;11.20;99.90;;;;;;4995494;28;20200;-74
2023/04/22 05:47:08;;;;;;;8.67;5.80;;;11.30;99.90;;;;;;5012881;28;20271;-74
2023/04/22 05:49:35;;;;;;;12.37;6.00;;;11.40;99.90;;;;;;5011976;28;20212;-73
2023/04/22 05:52:02;;;;;;;12.57;6.20;;;11.40;99.90;;;;;;5012870;28;20211;-74
2023/04/22 05:54:30;;;;;;;13.03;5.80;;;11.50;99.90;;;;;;4995233;28;20200;-74
2023/04/22 05:56:57;;;;;;;11.33;5.87;;;11.60;99.90;;;;;;4995472;28;20287;-73
2023/04/22 05:59:24;;;;;;;11.77;6.73;;;11.60;99.90;;;;;;4995100;28;20206;-74
2023/04/22 06:01:51;;;;;;;10.80;6.20;;;11.70;99.90;;;;;;5011347;28;20192;-73
2023/04/22 06:04:18;;;;;;;12.10;6.33;;;11.70;99.90;;;;;;4994922;28;20565;-75
2023/04/22 06:06:46;;;;;;;14.73;7.10;;;11.80;99.90;;;;;;5012409;28;20202;-74
2023/04/22 06:09:14;;;;;;;10.63;6.20;;;11.90;99.90;;;;;;4995179;28;20195;-73
2023/04/22 06:11:41;;;;;;;12.43;6.50;;;11.90;99.90;;;;;;4994746;28;20219;-73
2023/04/22 06:14:07;;;;;;;12.30;6.33;;;12.00;99.90;;;;;;4994991;28;20204;-75
2023/04/22 06:16:34;;;;;;;11.70;6.50;;;12.10;99.90;;;;;;5011328;28;20287;-72
2023/04/22 06:19:01;;;;;;;12.57;6.77;;;12.20;99.90;;;;;;4979073;28;20203;-70
2023/04/22 06:21:31;;;;;;;12.10;6.60;;;12.30;99.90;;;;;;4995052;28;20531;-74
2023/04/22 06:24:00;;;;;;;11.77;6.50;;;12.40;99.90;;;;;;4994838;28;20278;-74
2023/04/22 06:26:27;;;;;;;10.27;6.30;;;12.40;99.90;;;;;;4995191;28;20200;-74
2023/04/22 06:28:53;;;;;;;11.73;6.57;;;12.50;99.90;;;;;;4994911;28;20197;-71
2023/04/22 06:31:20;;;;;;;12.13;6.50;;;12.60;99.90;;;;;;4994946;28;20283;-81
2023/04/22 06:33:47;;;;;;;10.67;6.40;;;12.60;99.90;;;;;;5012365;28;20212;-76
2023/04/22 06:36:14;;;;;;;10.10;6.10;;;12.70;99.90;;;;;;5011099;28;20211;-76
2023/04/22 06:38:42;;;;;;;21.00;7.60;;;12.80;99.90;;;;;;4994688;28;20200;-80
2023/04/22 06:41:09;;;;;;;9.33;6.13;;;12.90;99.90;;;;;;4978570;28;20219;-79
2023/04/22 06:43:36;;;;;;;12.43;6.37;;;12.90;99.90;;;;;;5012108;28;20681;-80
2023/04/22 06:46:03;;;;;;;13.83;6.97;;;12.90;99.90;;;;;;5010803;28;20206;-81
2023/04/22 06:48:30;;;;;;;10.37;6.33;;;13.10;99.90;;;;;;5012316;28;20196;-81
2023/04/22 06:50:57;;;;;;;10.90;6.40;;;13.30;99.90;;;;;;5012306;28;20828;-79
2023/04/22 06:53:25;;;;;;;10.97;6.07;;;13.40;99.90;;;;;;5014816;28;20547;-76
2023/04/22 06:55:53;;;;;;;12.00;5.83;;;13.40;99.90;;;;;;4982192;28;20250;-79
2023/04/22 06:58:20;;;;;;;10.30;6.03;;;13.60;99.90;;;;;;4998011;28;20200;-81
2023/04/22 07:00:47;;;;;;;10.93;5.60;;;13.70;99.90;;;;;;4998003;28;20195;-78
2023/04/22 07:03:14;;;;;;;12.90;5.80;;;13.80;99.90;;;;;;4997679;28;20234;-79
2023/04/22 07:05:41;;;;;;;13.93;5.93;;;13.90;99.90;;;;;;5014253;28;20233;-77
2023/04/22 07:08:09;;;;;;;10.53;5.73;;;14.10;99.90;;;;;;4998143;28;20195;-76
2023/04/22 07:10:35;;;;;;;12.43;7.13;;;14.10;99.90;;;;;;5017289;28;20324;-76
2023/04/22 07:13:02;;;;;;;17.30;8.43;;;14.30;99.90;;;;;;5030517;23;20235;-76
2023/04/22 07:15:29;;;;;;;14.00;7.70;;;14.40;99.90;;;;;;5033821;28;20662;-78
2023/04/22 07:17:56;;;;;;;13.63;6.00;;;14.50;99.90;;;;;;5001055;28;20187;-78
2023/04/22 07:20:24;;;;;;;9.60;5.43;;;14.50;99.90;;;;;;5017052;28;20262;-80
2023/04/22 07:22:52;;;;;;;10.37;5.73;;;14.60;99.90;;;;;;5017445;28;20270;-78
2023/04/22 07:25:20;;;;;;;11.27;5.60;;;14.80;99.90;;;;;;5035334;28;20179;-78
2023/04/22 07:27:48;;;;;;;10.80;5.60;;;14.90;99.90;;;;;;5017201;28;20211;-78
2023/04/22 07:30:18;;;;;;;9.07;5.30;;;15.00;99.90;;;;;;5033771;28;20207;-80
2023/04/22 07:32:45;;;;;;;8.63;4.60;;;15.20;99.90;;;;;;5016690;28;20223;-74
2023/04/22 07:35:15;;;;;;;10.30;5.37;;;15.30;99.90;;;;;;5016932;28;20202;-77
2023/04/22 07:37:42;;;;;;;11.20;4.70;;;15.30;99.90;;;;;;5016914;28;20215;-78
2023/04/22 07:40:12;;;;;;;9.23;5.13;;;15.50;99.90;;;;;;5034801;28;20220;-81
2023/04/22 07:42:41;;;;;;;8.83;4.10;;;15.60;99.90;;;;;;5035440;28;20542;-76
2023/04/22 07:45:12;;;;;;;8.57;4.17;;;15.70;99.90;;;;;;5016824;28;20195;-76
2023/04/22 07:47:39;;;;;;;8.27;4.30;;;15.70;99.90;;;;;;5000624;28;20191;-76
2023/04/22 07:50:06;;;;;;;9.20;4.40;;;15.80;99.90;;;;;;5034402;28;20188;-80
2023/04/22 07:52:35;;;;;;;8.43;4.10;;;15.90;99.90;;;;;;5017010;28;20195;-77
2023/04/22 07:55:02;;;;;;;9.33;4.60;;;16.00;99.90;;;;;;5017089;28;20200;-76
2023/04/22 07:57:29;;;;;;;8.53;4.53;;;16.00;99.90;;;;;;5034761;28;20211;-74
2023/04/22 07:59:56;;;;;;;7.47;4.43;;;16.00;99.90;;;;;;5034507;28;20342;-77
2023/04/22 08:02:23;;;;;;;7.60;4.40;;;16.00;99.90;;;;;;5016727;28;20200;-77
2023/04/22 08:04:51;;;;;;;8.53;4.10;;;16.50;99.90;;;;;;5016356;28;20246;-76
2023/04/22 08:07:18;;;;;;;7.00;3.90;;;17.90;99.90;;;;;;5034283;28;20187;-77
2023/04/22 08:09:48;;;;;;;8.03;4.33;;;19.20;93.70;;;;;;5016976;28;20203;-77
2023/04/22 08:12:15;;;;;;;8.40;4.30;;;20.20;90.80;;;;;;5016562;28;20184;-79
2023/04/22 08:14:41;;;;;;;10.13;4.07;;;21.20;86.70;;;;;;5033396;28;20211;-76
2023/04/22 08:17:08;;;;;;;8.90;4.30;;;21.80;75.20;;;;;;5016434;28;20227;-75
2023/04/22 08:19:35;;;;;;;7.57;4.10;;;22.30;72.50;;;;;;5034244;28;20294;-87
2023/04/22 08:22:02;;;;;;;8.55;4.05;;;22.90;73.30;;;;;;5018527;28;20195;-86
2023/04/22 08:24:31;;;;;;;7.30;4.43;;;23.40;67.40;;;;;;5035858;28;20215;-87
2023/04/22 08:26:58;;;;;;;6.95;4.40;;;23.50;64.80;;;;;;5034732;28;20306;-83
2023/04/22 08:29:25;;;;;;;11.90;8.85;;;23.70;60.50;;;;;;5016570;28;20210;-77
2023/04/22 08:31:52;;;;;;;29.27;5.85;;;23.80;58.50;;;;;;5016487;28;20199;-81
2023/04/22 08:34:20;;;;;;;17.13;6.68;;;23.30;59.30;;;;;;5034137;28;20211;-77
2023/04/22 08:36:49;;;;;;;14.45;4.72;;;23.60;59.30;;;;;;5016492;28;20687;-80
2023/04/22 08:39:17;;;;;;;17.90;4.93;;;23.80;58.50;;;;;;5034263;28;20675;-79
2023/04/22 08:41:45;;;;;;;10.02;4.45;;;23.70;58.10;;;;;;5035001;28;20202;-75
2023/04/22 08:44:14;;;;;;;5.72;3.80;;;23.90;57.40;;;;;;5015650;28;20220;-80
2023/04/22 08:46:45;;;;;;;7.43;3.88;;;24.30;56.30;;;;;;5015823;28;20214;-79
2023/04/22 08:49:14;;;;;;;8.30;4.30;;;24.40;54.40;;;;;;5016030;28;20235;-77
2023/04/22 08:51:43;;;;;;;7.45;4.10;;;23.90;53.40;;;;;;5015705;28;20200;-79
2023/04/22 08:54:11;;;;;;;7.80;3.97;;;24.00;53.40;;;;;;5015650;28;20203;-77
2023/04/22 08:56:43;;;;;;;5.28;3.83;;;23.70;54.40;;;;;;5015620;28;20302;-78
2023/04/22 08:59:12;;;;;;;6.47;3.70;;;24.10;54.90;;;;;;5015592;28;20625;-75
2023/04/22 09:01:40;;;;;;;7.90;3.45;;;24.20;54.40;;;;;;5015907;28;20203;-78
2023/04/22 09:04:17;;;;;;;7.10;4.00;;;24.30;55.70;;;;;;4999766;28;20326;-78
2023/04/22 09:06:44;;;;;;;6.30;3.78;;;24.50;53.20;;;;;;5015501;28;20206;-79
2023/04/22 09:09:13;;;;;;;5.63;3.13;;;24.30;53.20;;;;;;5015432;28;20653;-79
2023/04/22 09:11:40;;;;;;;5.45;3.08;;;24.60;51.30;;;;;;5032983;28;20199;-78
2023/04/22 09:14:07;;;;;;;4.80;2.90;;;24.30;50.20;;;;;;5014982;28;20681;-78
2023/04/22 09:16:41;;;;;;;6.38;3.10;;;24.60;52.30;;;;;;5033010;28;20559;-79
2023/04/22 09:19:12;;;;;;;3.95;2.33;;;24.40;49.30;;;;;;5015024;28;20206;-76
2023/04/22 09:21:40;;;;;;;3.92;2.70;;;24.20;48.60;;;;;;5014909;28;20207;-78
2023/04/22 09:24:09;;;;;;;5.30;2.90;;;24.10;48.50;;;;;;5014937;28;20219;-77
2023/04/22 09:26:40;;;;;;;4.72;2.83;;;23.90;49.50;;;;;;5032692;28;20192;-78
2023/04/22 09:29:13;;;;;;;4.78;3.13;;;24.00;51.20;;;;;;5015608;28;20208;-79
2023/04/22 09:31:41;;;;;;;4.75;3.40;;;24.40;51.70;;;;;;5015193;28;20223;-80
2023/04/22 09:34:17;;;;;;;7.88;3.45;;;24.30;49.60;;;;;;5015216;28;20297;-76
2023/04/22 09:36:45;;;;;;;5.35;3.17;;;24.50;51.30;;;;;;5014692;28;20209;-76
2023/04/22 09:39:15;;;;;;;4.85;2.88;;;24.90;51.90;;;;;;5032972;28;20202;-78
2023/04/22 09:41:59;;;;;;;6.57;3.00;;;24.90;50.00;;;;;;5032196;28;20204;-75
2023/04/22 09:44:27;;;;;;;4.15;2.83;;;25.20;50.30;;;;;;5015095;28;20226;-76
2023/04/22 09:46:55;;;;;;;6.57;3.00;;;25.50;49.20;;;;;;5014935;28;20206;-79
2023/04/22 09:49:22;;;;;;;4.35;3.00;;;25.00;47.10;;;;;;5032564;28;20212;-76
2023/04/22 09:51:55;;;;;;;11.60;3.38;;;25.20;48.80;;;;;;5014820;28;20195;-77
2023/04/22 09:54:22;;;;;;;7.45;3.22;;;25.80;50.30;;;;;;5014945;28;20188;-80
2023/04/22 09:56:51;;;;;;;5.05;2.90;;;26.30;49.00;;;;;;5014597;28;20206;-78
2023/04/22 09:59:20;;;;;;;6.07;3.28;;;26.70;47.70;;;;;;5014630;28;20210;-80
2023/04/22 10:01:52;;;;;;;4.68;2.75;;;26.70;47.20;;;;;;5014678;28;20262;-78
2023/04/22 10:04:24;;;;;;;6.80;3.00;;;26.80;47.00;;;;;;5032308;28;20629;-78
2023/04/22 10:06:55;;;;;;;4.20;2.90;;;26.70;45.50;;;;;;5014083;28;20210;-76
2023/04/22 10:09:24;;;;;;;5.65;3.35;;;26.50;46.50;;;;;;5014229;28;20191;-77
2023/04/22 10:11:55;;;;;;;7.53;5.20;;;26.60;46.40;;;;;;5014513;28;20195;-77
2023/04/22 10:14:23;;;;;;;6.50;3.17;;;26.60;46.30;;;;;;4998106;28;20327;-80
2023/04/22 10:16:58;;;;;;;7.15;3.10;;;26.60;45.80;;;;;;5014480;28;20551;-75
2023/04/22 10:19:26;;;;;;;3.50;2.90;;;26.90;46.70;;;;;;5014563;28;20233;-78
2023/04/22 10:21:56;;;;;;;5.47;3.05;;;26.80;43.90;;;;;;5032220;28;20218;-77
2023/04/22 10:24:26;;;;;;;7.88;3.17;;;26.70;45.10;;;;;;5032092;28;20215;-81
2023/04/22 10:26:59;;;;;;;6.32;3.22;;;26.80;44.80;;;;;;5016478;28;20192;-78
2023/04/22 10:29:37;;;;;;;8.07;2.95;;;26.80;44.10;;;;;;5036040;28;20566;-79
2023/04/22 10:32:25;;;;;;;5.07;2.67;;;26.70;44.40;;;;;;5036003;28;20197;-85
2023/04/22 10:35:13;;;;;;;4.47;2.70;;;26.90;44.50;;;;;;5019887;28;20238;-87
2023/04/22 10:37:42;;;;;;;4.28;2.60;;;27.40;44.80;;;;;;5038179;28;20196;-89
2023/04/22 10:40:15;;;;;;;5.88;2.75;;;27.50;47.10;;;;;;5022632;28;20188;-88
2023/04/22 10:42:51;;;;;;;4.22;2.50;;;28.00;45.70;;;;;;5018322;28;20633;-81
2023/04/22 10:45:22;;;;;;;4.13;2.50;;;28.20;43.50;;;;;;5018050;28;20210;-80
2023/04/22 10:47:49;;;;;;;4.72;2.30;;;28.10;44.20;;;;;;5018366;28;20196;-83
2023/04/22 10:50:25;;;;;;;5.50;2.25;;;28.20;45.10;;;;;;5017473;28;20201;-82
2023/04/22 10:53:02;;;;;;;5.50;2.55;;;28.50;46.90;;;;;;5017810;28;20196;-84
2023/04/22 10:55:59;;;;;;;4.88;2.38;;;28.90;43.60;;;;;;5018038;28;20237;-86
2023/04/22 10:58:26;;;;;;;5.53;2.63;;;28.70;45.80;;;;;;4958554;28;20291;-79
2023/04/22 11:00:58;;;;;;;4.38;2.83;;;28.90;43.70;;;;;;4959158;28;20196;-77
2023/04/22 11:03:29;;;;;;;5.53;3.22;;;28.50;43.90;;;;;;4955871;28;20234;-81
2023/04/22 11:06:17;;;;;;;7.13;3.20;;;27.20;48.90;;;;;;4962241;28;20283;-79
2023/04/22 11:08:49;;;;;;;6.60;3.17;;;27.50;51.00;;;;;;4936283;28;20210;-82
2023/04/22 11:11:17;;;;;;;6.22;3.13;;;27.60;49.70;;;;;;4973886;28;20560;-80
2023/04/22 11:13:49;;;;;;;6.10;3.13;;;27.70;50.20;;;;;;4957207;28;20248;-82
2023/04/22 11:16:20;;;;;;;4.05;3.03;;;27.40;46.60;;;;;;4974205;28;20257;-84
2023/04/22 11:18:49;;;;;;;5.32;3.38;;;27.20;49.70;;;;;;4961208;28;20201;-82
2023/04/22 11:21:16;;;;;;;10.05;3.45;;;27.30;48.60;;;;;;4976938;28;20363;-80
2023/04/22 11:23:51;;;;;;;5.07;2.92;;;27.10;46.40;;;;;;4956040;28;20245;-81
2023/04/22 11:26:31;;;;;;;5.15;2.83;;;26.90;46.60;;;;;;4973131;28;20585;-79
2023/04/22 11:28:59;;;;;;;7.35;3.20;;;27.20;49.20;;;;;;4957589;28;20293;-78
2023/04/22 11:31:26;;;;;;;4.95;2.60;;;27.70;48.90;;;;;;4974085;28;20313;-80
2023/04/22 11:33:58;;;;;;;2.95;2.22;;;28.40;48.60;;;;;;4961881;28;20233;-81
2023/04/22 11:36:25;;;;;;;3.42;2.00;;;28.70;45.20;;;;;;4997032;28;20240;-81
2023/04/22 11:38:55;;;;;;;3.85;1.88;;;29.20;46.30;;;;;;5014388;28;20613;-84
2023/04/22 11:41:22;;;;;;;3.60;1.83;;;29.70;45.30;;;;;;4997504;28;20648;-82
2023/04/22 11:43:49;;;;;;;6.13;2.17;;;30.10;44.10;;;;;;4997625;28;20258;-80
2023/04/22 11:46:27;;;;;;;3.75;2.13;;;30.10;41.50;;;;;;5015024;28;20593;-84
2023/04/22 11:49:18;;;;;;;4.60;2.50;;;29.70;42.50;;;;;;4997212;28;20199;-85
2023/04/22 11:52:04;;;;;;;3.63;2.38;;;29.40;43.60;;;;;;5017500;28;20282;-80
2023/04/22 11:54:31;;;;;;;5.97;2.47;;;28.90;43.40;;;;;;5034707;28;20637;-82
2023/04/22 11:57:10;;;;;;;6.20;3.40;;;29.20;45.80;;;;;;5034420;28;20207;-85
2023/04/22 11:59:37;;;;;;;3.42;2.25;;;29.30;45.10;;;;;;5034258;28;20736;-85
2023/04/22 12:02:06;;;;;;;6.65;3.45;;;28.90;44.50;;;;;;5034953;28;20203;-82
2023/04/22 12:04:40;;;;;;;7.07;3.65;;;28.50;43.10;;;;;;5016878;28;20216;-84
2023/04/22 12:07:07;;;;;;;5.05;3.30;;;28.50;44.90;;;;;;5033898;28;20599;-84
2023/04/22 12:09:34;;;;;;;8.38;3.28;;;28.80;43.80;;;;;;5022587;28;20199;-84
2023/04/22 12:12:04;;;;;;;3.80;2.35;;;28.50;44.10;;;;;;5016014;28;20647;-84
2023/04/22 12:14:35;;;;;;;2.90;2.30;;;28.00;45.50;;;;;;4996701;28;20273;-77
2023/04/22 12:17:07;;;;;;;4.45;2.20;;;28.60;46.50;;;;;;5014926;28;20198;-86
2023/04/22 12:19:34;;;;;;;3.17;1.80;;;28.90;45.40;;;;;;5016313;28;20202;-89
2023/04/22 12:22:02;;;;;;;3.30;1.77;;;29.50;44.60;;;;;;5034577;28;20679;-86
2023/04/22 12:24:29;;;;;;;4.57;1.90;;;29.70;42.50;;;;;;5016293;28;20240;-84
2023/04/22 12:26:57;;;;;;;3.10;2.13;;;29.70;42.20;;;;;;5015792;28;20235;-82
2023/04/22 12:29:32;;;;;;;3.08;2.03;;;29.90;41.90;;;;;;5016914;28;20196;-84
2023/04/22 12:31:59;;;;;;;3.28;2.33;;;30.00;42.00;;;;;;5021036;28;20301;-83
2023/04/22 12:34:27;;;;;;;7.88;3.30;;;29.90;41.60;;;;;;5012773;28;20500;-83
2023/04/22 12:36:57;;;;;;;5.32;2.60;;;30.20;42.00;;;;;;5014567;28;20214;-79
2023/04/22 12:39:27;;;;;;;5.72;2.65;;;30.50;41.40;;;;;;5019390;28;20201;-81
2023/04/22 12:41:54;;;;;;;4.85;2.55;;;30.70;41.50;;;;;;5021036;28;20234;-83
2023/04/22 12:44:21;;;;;;;4.80;2.60;;;31.20;40.00;;;;;;5021559;28;20314;-81
2023/04/22 12:46:50;;;;;;;3.55;2.80;;;31.60;41.80;;;;;;5015274;28;20652;-78
2023/04/22 12:49:18;;;;;;;3.95;3.13;;;31.50;40.60;;;;;;5015398;28;20210;-79